createdAt,value
2019-06-26T00:01:18.312Z,6.00
2019-06-26T00:03:46.760Z,6.45
2019-06-26T00:06:16.957Z,6.33
2019-06-26T00:08:45.356Z,6.33
2019-06-26T00:11:13.770Z,6.40
2019-06-26T00:13:42.172Z,6.60
2019-06-26T00:16:10.662Z,6.17
2019-06-26T00:18:39.149Z,5.95
2019-06-26T00:21:07.555Z,5.90
2019-06-26T00:23:36.123Z,5.87
2019-06-26T00:26:04.542Z,5.92
2019-06-26T00:28:32.959Z,5.92
2019-06-26T00:31:01.409Z,6.80
2019-06-26T00:33:29.849Z,6.90
2019-06-26T00:36:00.889Z,5.90
2019-06-26T00:38:29.315Z,6.03
2019-06-26T00:40:57.739Z,6.05
2019-06-26T00:43:38.487Z,6.12
2019-06-26T00:45:56.303Z,5.78
2019-06-26T00:48:24.715Z,6.30
2019-06-26T00:50:53.151Z,5.95
2019-06-26T00:53:21.966Z,6.25
2019-06-26T00:55:50.425Z,6.30
2019-06-26T00:58:18.856Z,7.25
2019-06-26T01:00:51.400Z,7.45
2019-06-26T01:03:19.826Z,8.08
2019-06-26T01:05:48.242Z,9.43
2019-06-26T01:08:16.679Z,9.25
2019-06-26T01:10:45.768Z,10.03
2019-06-26T01:13:14.168Z,10.15
2019-06-26T01:15:42.730Z,9.38
2019-06-26T01:18:11.153Z,10.10
2019-06-26T01:20:39.590Z,9.80
2019-06-26T01:23:08.067Z,10.30
2019-06-26T01:25:36.480Z,10.40
2019-06-26T01:28:06.022Z,10.48
2019-06-26T01:30:34.455Z,10.60
2019-06-26T01:33:02.874Z,10.25
2019-06-26T01:35:31.291Z,10.30
2019-06-26T01:37:59.722Z,9.70
2019-06-26T01:40:29.383Z,9.78
2019-06-26T01:42:57.799Z,9.93
2019-06-26T01:45:26.242Z,10.10
2019-06-26T01:47:54.659Z,10.28
2019-06-26T01:50:23.063Z,10.13
2019-06-26T01:52:51.489Z,10.15
2019-06-26T01:55:19.918Z,10.33
2019-06-26T01:57:48.732Z,10.72
2019-06-26T02:00:17.468Z,10.43
2019-06-26T02:02:45.895Z,10.00
2019-06-26T02:05:14.475Z,10.43
2019-06-26T02:07:42.926Z,10.72
2019-06-26T02:10:13.371Z,11.13
2019-06-26T02:12:41.788Z,11.25
2019-06-26T02:15:10.490Z,11.20
2019-06-26T02:17:38.899Z,11.53
2019-06-26T02:20:07.639Z,12.07
2019-06-26T02:22:36.078Z,11.93
2019-06-26T02:25:06.465Z,12.37
2019-06-26T02:27:35.048Z,11.68
2019-06-26T02:30:04.787Z,11.38
2019-06-26T02:32:33.307Z,11.20
2019-06-26T02:35:01.730Z,11.53
2019-06-26T02:37:30.276Z,10.80
2019-06-26T02:39:58.731Z,10.88
2019-06-26T02:42:27.210Z,10.43
2019-06-26T02:44:55.762Z,10.93
2019-06-26T02:47:24.165Z,10.58
2019-06-26T02:49:52.683Z,11.93
2019-06-26T02:52:21.099Z,11.03
2019-06-26T02:54:49.521Z,11.68
2019-06-26T02:57:18.074Z,12.23
2019-06-26T02:59:46.523Z,10.53
2019-06-26T03:02:14.951Z,10.90
2019-06-26T03:04:43.380Z,10.48
2019-06-26T03:07:11.889Z,10.45
2019-06-26T03:09:40.280Z,11.22
2019-06-26T03:12:08.780Z,11.05
2019-06-26T03:14:37.190Z,10.75
2019-06-26T03:17:05.603Z,11.45
2019-06-26T03:19:34.059Z,10.90
2019-06-26T03:22:02.470Z,11.00
2019-06-26T03:24:31.552Z,10.80
2019-06-26T03:27:00.047Z,11.00
2019-06-26T03:29:28.769Z,10.50
2019-06-26T03:31:57.928Z,11.68
2019-06-26T03:34:26.339Z,12.30
2019-06-26T03:36:54.763Z,12.05
2019-06-26T03:39:23.187Z,12.53
2019-06-26T03:41:51.757Z,12.65
2019-06-26T03:44:20.161Z,11.88
2019-06-26T03:46:48.580Z,11.70
2019-06-26T03:49:16.999Z,13.25
2019-06-26T03:51:45.427Z,14.35
2019-06-26T03:54:13.997Z,13.72
2019-06-26T03:56:42.400Z,12.05
2019-06-26T03:59:10.813Z,11.78
2019-06-26T04:01:39.265Z,12.58
2019-06-26T04:04:07.666Z,11.55
2019-06-26T04:06:36.169Z,12.35
2019-06-26T04:09:05.886Z,14.40
2019-06-26T04:11:35.744Z,13.62
2019-06-26T04:14:04.457Z,13.80
2019-06-26T04:16:32.877Z,14.95
2019-06-26T04:19:01.306Z,15.35
2019-06-26T04:21:29.746Z,15.35
2019-06-26T04:23:58.474Z,16.30
2019-06-26T04:26:26.891Z,16.00
2019-06-26T04:28:55.341Z,15.68
2019-06-26T04:31:23.751Z,14.95
2019-06-26T04:33:52.157Z,14.65
2019-06-26T04:36:20.663Z,14.23
2019-06-26T04:38:49.115Z,15.15
2019-06-26T04:41:17.519Z,16.30
2019-06-26T04:43:45.925Z,16.48
2019-06-26T04:46:14.371Z,16.73
2019-06-26T04:48:42.830Z,16.82
2019-06-26T04:51:11.322Z,13.60
2019-06-26T04:53:39.765Z,14.43
2019-06-26T04:56:08.180Z,15.15
2019-06-26T04:58:36.607Z,16.27
2019-06-26T05:01:05.051Z,18.75
2019-06-26T05:03:33.459Z,18.17
2019-06-26T05:06:02.083Z,27.70
2019-06-26T05:08:30.467Z,27.90
2019-06-26T05:10:58.906Z,29.50
2019-06-26T05:13:27.314Z,29.30
2019-06-26T05:15:55.747Z,32.10
2019-06-26T05:18:24.297Z,27.32
2019-06-26T05:20:52.761Z,30.72
2019-06-26T05:23:21.197Z,30.88
2019-06-26T05:25:49.655Z,28.90
2019-06-26T05:28:18.114Z,29.50
2019-06-26T05:30:47.463Z,29.05
2019-06-26T05:33:15.967Z,30.48
2019-06-26T05:35:44.393Z,30.72
2019-06-26T05:38:12.818Z,27.00
2019-06-26T05:40:41.226Z,28.62
2019-06-26T05:43:09.815Z,29.48
2019-06-26T05:45:38.214Z,29.50
2019-06-26T05:48:06.649Z,27.50
2019-06-26T05:50:35.084Z,28.27
2019-06-26T05:53:03.507Z,26.50
2019-06-26T05:55:32.179Z,27.77
2019-06-26T05:58:00.619Z,27.50
2019-06-26T06:00:29.351Z,26.97
2019-06-26T06:02:58.145Z,24.70
2019-06-26T06:05:26.696Z,25.05
2019-06-26T06:07:55.122Z,23.83
2019-06-26T06:10:23.562Z,23.73
2019-06-26T06:12:52.202Z,23.65
2019-06-26T06:15:20.705Z,25.30
2019-06-26T06:17:49.133Z,26.35
2019-06-26T06:20:20.622Z,24.70
2019-06-26T06:22:49.050Z,26.40
2019-06-26T06:25:18.242Z,25.77
2019-06-26T06:27:46.822Z,23.00
2019-06-26T06:30:15.606Z,24.47
2019-06-26T06:32:44.021Z,22.37
2019-06-26T06:35:12.494Z,22.80
2019-06-26T06:37:40.915Z,22.80
2019-06-26T06:40:10.527Z,21.62
2019-06-26T06:42:39.020Z,21.70
2019-06-26T06:45:07.846Z,22.58
2019-06-26T06:47:36.327Z,21.55
2019-06-26T06:50:08.923Z,21.50
2019-06-26T06:52:37.355Z,21.62
2019-06-26T06:55:06.520Z,24.72
2019-06-26T06:57:34.939Z,22.75
2019-06-26T07:00:04.565Z,21.75
2019-06-26T07:02:32.975Z,24.37
2019-06-26T07:05:01.712Z,24.85
2019-06-26T07:07:30.244Z,24.35
2019-06-26T07:09:58.695Z,22.42
2019-06-26T07:12:27.092Z,22.45
2019-06-26T07:14:55.529Z,23.42
2019-06-26T07:17:25.538Z,21.05
2019-06-26T07:19:54.015Z,23.73
2019-06-26T07:22:22.464Z,20.82
2019-06-26T07:24:50.859Z,23.83
2019-06-26T07:27:20.198Z,25.35
2019-06-26T07:29:49.512Z,23.60
2019-06-26T07:32:17.922Z,25.00
2019-06-26T07:34:48.141Z,26.85
2019-06-26T07:37:16.549Z,26.17
2019-06-26T07:39:44.967Z,23.73
2019-06-26T07:42:13.401Z,24.25
2019-06-26T07:44:41.898Z,19.95
2019-06-26T07:47:22.425Z,22.80
2019-06-26T07:49:41.953Z,23.92
2019-06-26T07:52:10.462Z,23.07
2019-06-26T07:54:38.882Z,23.75
2019-06-26T07:57:07.283Z,22.93
2019-06-26T07:59:35.754Z,24.25
2019-06-26T08:02:04.145Z,22.65
2019-06-26T08:04:33.125Z,20.17
2019-06-26T08:07:01.571Z,19.02
2019-06-26T08:09:30.036Z,19.67
2019-06-26T08:11:58.445Z,21.20
2019-06-26T08:14:26.861Z,20.17
2019-06-26T08:16:56.366Z,21.25
2019-06-26T08:19:24.787Z,22.85
2019-06-26T08:21:54.246Z,21.20
2019-06-26T08:24:22.642Z,20.92
2019-06-26T08:26:51.047Z,22.95
2019-06-26T08:29:19.462Z,20.12
2019-06-26T08:31:47.867Z,19.77
2019-06-26T08:34:18.019Z,20.72
2019-06-26T08:36:46.622Z,23.70
2019-06-26T08:39:16.535Z,20.30
2019-06-26T08:41:45.127Z,19.40
2019-06-26T08:44:13.575Z,17.32
2019-06-26T08:46:41.997Z,16.87
2019-06-26T08:49:24.398Z,20.70
2019-06-26T08:51:41.436Z,18.02
2019-06-26T08:54:09.844Z,17.27
2019-06-26T08:56:38.376Z,14.68
2019-06-26T08:59:06.900Z,14.90
2019-06-26T09:01:35.299Z,20.25
2019-06-26T09:04:04.571Z,16.65
2019-06-26T09:06:32.987Z,18.57
2019-06-26T09:09:03.330Z,15.28
2019-06-26T09:11:31.757Z,16.10
2019-06-26T09:14:00.166Z,15.28
2019-06-26T09:16:28.616Z,17.12
2019-06-26T09:18:57.066Z,17.02
2019-06-26T09:21:30.053Z,14.05
2019-06-26T09:23:57.229Z,17.52
2019-06-26T09:26:26.667Z,15.40
2019-06-26T09:28:55.137Z,14.85
2019-06-26T09:31:23.596Z,15.20
2019-06-26T09:33:52.089Z,15.60
2019-06-26T09:36:20.573Z,15.30
2019-06-26T09:38:49.080Z,14.95
2019-06-26T09:41:17.558Z,15.38
2019-06-26T09:43:46.008Z,15.30
2019-06-26T09:46:14.498Z,15.40
2019-06-26T09:48:52.700Z,16.52
2019-06-26T09:51:13.117Z,17.05
2019-06-26T09:53:46.970Z,13.72
2019-06-26T09:56:13.153Z,15.48
2019-06-26T09:58:41.590Z,14.55
2019-06-26T10:01:10.321Z,14.13
2019-06-26T10:03:38.891Z,15.13
2019-06-26T10:06:07.312Z,14.23
2019-06-26T10:08:35.723Z,15.25
2019-06-26T10:11:04.209Z,15.43
2019-06-26T10:13:33.394Z,13.75
2019-06-26T10:16:02.053Z,13.85
2019-06-26T10:18:30.480Z,14.35
2019-06-26T10:20:58.891Z,14.65
2019-06-26T10:23:27.294Z,13.28
2019-06-26T10:25:56.098Z,13.48
2019-06-26T10:28:24.639Z,13.85
2019-06-26T10:30:53.105Z,14.47
2019-06-26T10:33:21.616Z,14.98
2019-06-26T10:35:50.079Z,15.80
2019-06-26T10:38:18.525Z,14.13
2019-06-26T10:40:47.002Z,14.78
2019-06-26T10:43:15.488Z,14.95
2019-06-26T10:45:44.070Z,17.65
2019-06-26T10:48:12.487Z,13.98
2019-06-26T10:50:49.744Z,15.13
2019-06-26T10:53:11.051Z,13.78
2019-06-26T10:55:39.652Z,15.38
2019-06-26T10:58:08.125Z,15.45
2019-06-26T11:00:36.677Z,14.60
2019-06-26T11:03:05.170Z,13.53
2019-06-26T11:05:33.579Z,13.50
2019-06-26T11:08:02.400Z,13.03
2019-06-26T11:10:30.811Z,13.03
2019-06-26T11:12:59.232Z,14.38
2019-06-26T11:15:27.714Z,13.80
2019-06-26T11:17:59.693Z,12.20
2019-06-26T11:20:28.108Z,12.73
2019-06-26T11:22:56.553Z,12.65
2019-06-26T11:25:25.944Z,12.65
2019-06-26T11:27:54.345Z,15.60
2019-06-26T11:30:23.480Z,13.30
2019-06-26T11:32:51.963Z,13.65
2019-06-26T11:35:20.433Z,12.63
2019-06-26T11:37:48.836Z,11.28
2019-06-26T11:40:17.778Z,12.15
2019-06-26T11:42:46.891Z,11.95
2019-06-26T11:45:15.695Z,12.33
2019-06-26T11:47:45.842Z,11.70
2019-06-26T11:50:14.788Z,13.55
2019-06-26T11:52:43.218Z,11.63
2019-06-26T11:55:12.182Z,11.73
2019-06-26T11:57:40.659Z,11.60
2019-06-26T12:00:11.874Z,12.00
2019-06-26T12:02:40.484Z,11.80
2019-06-26T12:05:09.953Z,11.70
2019-06-26T12:07:38.432Z,11.50
2019-06-26T12:10:07.765Z,11.15
2019-06-26T12:12:36.340Z,10.30
2019-06-26T12:15:07.251Z,10.06
2019-06-26T12:17:35.806Z,10.85
2019-06-26T12:20:17.708Z,10.13
2019-06-26T12:22:37.391Z,9.73
2019-06-26T12:25:06.768Z,10.75
2019-06-26T12:27:35.620Z,10.13
2019-06-26T12:30:06.730Z,9.20
2019-06-26T12:32:41.799Z,8.85
2019-06-26T12:35:06.815Z,8.88
2019-06-26T12:37:38.105Z,8.70
2019-06-26T12:40:06.828Z,8.70
2019-06-26T12:42:35.527Z,7.78
2019-06-26T12:45:06.948Z,7.78
2019-06-26T12:47:36.598Z,7.67
2019-06-26T12:50:07.648Z,7.48
2019-06-26T12:52:36.193Z,6.85
2019-06-26T12:55:07.456Z,7.00
2019-06-26T12:57:35.930Z,6.72
2019-06-26T13:00:08.261Z,6.90
2019-06-26T13:02:36.669Z,6.00
2019-06-26T13:05:07.816Z,7.02
2019-06-26T13:07:36.185Z,5.70
2019-06-26T13:10:07.862Z,5.60
2019-06-26T13:12:36.844Z,5.97
2019-06-26T13:15:09.993Z,5.66
2019-06-26T13:17:38.409Z,6.47
2019-06-26T13:20:10.767Z,6.37
2019-06-26T13:22:39.373Z,6.00
2019-06-26T13:25:08.959Z,5.58
2019-06-26T13:27:37.446Z,6.90
2019-06-26T13:30:10.062Z,6.45
2019-06-26T13:32:38.481Z,6.10
2019-06-26T13:35:07.563Z,6.62
2019-06-26T13:37:36.139Z,6.75
2019-06-26T13:40:06.639Z,6.67
2019-06-26T13:42:35.045Z,6.97
2019-06-26T13:45:05.442Z,7.60
2019-06-26T13:47:33.955Z,8.25
2019-06-26T13:50:02.943Z,7.08
2019-06-26T13:52:31.650Z,6.70
2019-06-26T13:55:00.323Z,6.80
2019-06-26T13:57:28.762Z,6.50
2019-06-26T13:59:57.171Z,7.03
2019-06-26T14:02:25.586Z,7.50
2019-06-26T14:04:54.040Z,8.18
2019-06-26T14:07:22.697Z,8.55
2019-06-26T14:09:51.180Z,9.58
2019-06-26T14:12:19.614Z,10.23
2019-06-26T14:14:57.266Z,9.10
2019-06-26T14:17:18.615Z,8.35
2019-06-26T14:19:47.170Z,9.95
2019-06-26T14:22:15.766Z,11.60
2019-06-26T14:24:45.086Z,11.60
2019-06-26T14:27:13.702Z,12.43
2019-06-26T14:29:42.220Z,13.05
2019-06-26T14:32:10.781Z,13.00
2019-06-26T14:34:39.390Z,12.50
2019-06-26T14:37:13.806Z,13.98
2019-06-26T14:39:42.366Z,16.77
2019-06-26T14:42:12.823Z,17.37
2019-06-26T14:44:41.423Z,18.55
2019-06-26T14:47:10.268Z,19.35
2019-06-26T14:49:38.824Z,16.37
2019-06-26T14:52:07.637Z,18.32
2019-06-26T14:54:36.194Z,17.77
2019-06-26T14:57:04.847Z,16.87
2019-06-26T14:59:33.790Z,17.98
2019-06-26T15:02:02.465Z,17.15
2019-06-26T15:04:31.061Z,17.32
2019-06-26T15:06:59.805Z,17.62
2019-06-26T15:09:28.305Z,20.00
2019-06-26T15:11:57.029Z,17.27
2019-06-26T15:14:25.983Z,17.65
2019-06-26T15:16:55.160Z,17.70
2019-06-26T15:19:23.912Z,18.60
2019-06-26T15:21:58.338Z,18.77
2019-06-26T15:24:23.978Z,18.50
2019-06-26T15:26:52.614Z,18.35
2019-06-26T15:29:21.209Z,18.20
2019-06-26T15:31:49.902Z,21.75
2019-06-26T15:34:18.835Z,19.20
2019-06-26T15:36:47.317Z,19.25
2019-06-26T15:39:15.835Z,19.80
2019-06-26T15:41:44.346Z,18.90
2019-06-26T15:44:12.917Z,18.17
2019-06-26T15:46:41.753Z,19.57
2019-06-26T15:49:10.406Z,18.62
2019-06-26T15:51:39.000Z,17.60
2019-06-26T15:54:07.705Z,17.00
2019-06-26T15:56:36.431Z,17.25
2019-06-26T15:59:05.052Z,17.10
2019-06-26T16:01:33.692Z,15.40
2019-06-26T16:04:02.628Z,13.55
2019-06-26T16:06:31.300Z,13.98
2019-06-26T16:09:00.067Z,12.78
2019-06-26T16:11:29.127Z,13.80
2019-06-26T16:13:59.093Z,13.08
2019-06-26T16:16:27.985Z,13.38
2019-06-26T16:19:06.750Z,13.60
2019-06-26T16:21:35.314Z,12.13
2019-06-26T16:24:03.890Z,10.93
2019-06-26T16:26:32.470Z,10.28
2019-06-26T16:29:01.039Z,9.43
2019-06-26T16:31:29.751Z,9.05
2019-06-26T16:33:58.293Z,8.63
2019-06-26T16:36:27.186Z,8.58
2019-06-26T16:38:55.660Z,8.40
2019-06-26T16:41:24.221Z,9.13
2019-06-26T16:43:53.448Z,9.25
2019-06-26T16:46:22.057Z,8.15
2019-06-26T16:48:50.664Z,8.05
2019-06-26T16:51:19.370Z,7.40
2019-06-26T16:53:47.913Z,8.58
2019-06-26T16:56:17.825Z,8.20
2019-06-26T16:58:46.376Z,8.40
2019-06-26T17:01:15.487Z,8.60
2019-06-26T17:03:43.965Z,8.05
2019-06-26T17:06:12.555Z,8.23
2019-06-26T17:08:41.004Z,8.03
2019-06-26T17:11:09.491Z,7.97
2019-06-26T17:13:38.262Z,8.65
2019-06-26T17:16:06.718Z,8.50
2019-06-26T17:18:35.247Z,7.80
2019-06-26T17:21:03.691Z,10.37
2019-06-26T17:23:32.146Z,10.15
2019-06-26T17:26:01.538Z,10.63
2019-06-26T17:28:29.987Z,9.78
2019-06-26T17:30:58.833Z,10.93
2019-06-26T17:33:27.372Z,10.78
2019-06-26T17:35:55.912Z,11.88
2019-06-26T17:38:24.406Z,11.78
2019-06-26T17:40:52.873Z,11.83
2019-06-26T17:43:21.573Z,11.65
2019-06-26T17:45:50.055Z,10.93
2019-06-26T17:48:18.596Z,12.07
2019-06-26T17:50:47.081Z,11.80
2019-06-26T17:53:21.548Z,11.53
2019-06-26T17:55:45.699Z,12.47
2019-06-26T17:58:14.110Z,13.15
2019-06-26T18:00:42.696Z,12.58
2019-06-26T18:03:11.095Z,12.82
2019-06-26T18:05:39.741Z,12.87
2019-06-26T18:08:08.297Z,13.20
2019-06-26T18:10:36.737Z,12.55
2019-06-26T18:13:05.715Z,12.75
2019-06-26T18:15:34.154Z,13.60
2019-06-26T18:18:02.570Z,13.25
2019-06-26T18:20:31.005Z,14.03
2019-06-26T18:23:06.960Z,13.90
2019-06-26T18:25:29.588Z,13.50
2019-06-26T18:27:58.008Z,14.93
2019-06-26T18:30:26.514Z,12.65
2019-06-26T18:32:54.993Z,12.60
2019-06-26T18:35:23.404Z,12.33
2019-06-26T18:37:51.810Z,12.95
2019-06-26T18:40:20.316Z,12.80
2019-06-26T18:42:50.056Z,11.43
2019-06-26T18:45:18.671Z,12.87
2019-06-26T18:47:47.116Z,13.00
2019-06-26T18:50:15.668Z,12.55
2019-06-26T18:52:44.072Z,12.15
2019-06-26T18:55:13.883Z,12.47
2019-06-26T18:57:42.359Z,12.37
2019-06-26T19:00:11.161Z,12.77
2019-06-26T19:02:39.608Z,11.85
2019-06-26T19:05:09.873Z,11.70
2019-06-26T19:07:38.274Z,11.05
2019-06-26T19:10:09.817Z,11.03
2019-06-26T19:12:38.293Z,11.48
2019-06-26T19:15:07.344Z,10.65
2019-06-26T19:17:36.419Z,10.23
2019-06-26T19:20:09.229Z,11.38
2019-06-26T19:22:38.979Z,10.28
2019-06-26T19:25:07.999Z,10.93
2019-06-26T19:27:36.427Z,10.75
2019-06-26T19:30:09.130Z,11.54
2019-06-26T19:32:37.758Z,10.80
2019-06-26T19:35:18.215Z,9.73
2019-06-26T19:37:37.284Z,10.65
2019-06-26T19:40:08.702Z,10.70
2019-06-26T19:42:36.341Z,10.30
2019-06-26T19:45:09.259Z,9.88
2019-06-26T19:47:37.694Z,11.00
2019-06-26T19:50:09.777Z,9.25
2019-06-26T19:52:38.231Z,11.83
2019-06-26T19:55:08.122Z,11.12
2019-06-26T19:57:36.713Z,10.48
2019-06-26T20:00:08.123Z,13.22
2019-06-26T20:02:36.582Z,16.00
2019-06-26T20:05:07.164Z,13.85
2019-06-26T20:07:35.685Z,12.55
2019-06-26T20:10:05.930Z,12.40
2019-06-26T20:12:34.341Z,13.62
2019-06-26T20:15:03.202Z,13.48
2019-06-26T20:17:31.890Z,12.78
2019-06-26T20:20:00.374Z,11.33
2019-06-26T20:22:28.787Z,12.50
2019-06-26T20:24:57.543Z,11.95
2019-06-26T20:27:26.028Z,11.22
2019-06-26T20:29:54.688Z,11.15
2019-06-26T20:32:23.130Z,9.63
2019-06-26T20:34:51.637Z,10.18
2019-06-26T20:37:20.036Z,10.35
2019-06-26T20:39:48.473Z,10.53
2019-06-26T20:42:17.206Z,12.95
2019-06-26T20:44:45.638Z,11.25
2019-06-26T20:47:14.073Z,10.20
2019-06-26T20:49:52.647Z,10.43
2019-06-26T20:52:12.623Z,13.72
2019-06-26T20:54:41.059Z,12.68
2019-06-26T20:57:09.480Z,10.75
2019-06-26T20:59:38.098Z,10.45
2019-06-26T21:02:06.520Z,11.30
2019-06-26T21:04:34.945Z,11.35
2019-06-26T21:07:03.350Z,10.53
2019-06-26T21:09:31.777Z,10.23
2019-06-26T21:12:00.328Z,11.40
2019-06-26T21:14:28.741Z,10.00
2019-06-26T21:16:57.154Z,13.03
2019-06-26T21:19:25.590Z,11.05
2019-06-26T21:21:54.025Z,10.68
2019-06-26T21:24:24.175Z,11.78
2019-06-26T21:26:52.610Z,10.75
2019-06-26T21:29:21.051Z,10.38
2019-06-26T21:31:49.475Z,9.95
2019-06-26T21:34:17.914Z,9.68
2019-06-26T21:36:46.323Z,10.88
2019-06-26T21:39:14.728Z,10.75
2019-06-26T21:41:43.407Z,10.75
2019-06-26T21:44:11.806Z,11.88
2019-06-26T21:46:40.262Z,13.18
2019-06-26T21:49:08.692Z,10.43
2019-06-26T21:51:37.133Z,12.00
2019-06-26T21:54:05.941Z,10.53
2019-06-26T21:56:34.511Z,10.32
2019-06-26T21:59:08.106Z,10.68
2019-06-26T22:01:36.853Z,11.53
2019-06-26T22:04:05.568Z,11.63
2019-06-26T22:06:34.451Z,11.08
2019-06-26T22:09:04.473Z,10.35
2019-06-26T22:11:33.004Z,10.98
2019-06-26T22:14:01.428Z,10.90
2019-06-26T22:16:30.144Z,11.22
2019-06-26T22:18:58.562Z,10.50
2019-06-26T22:21:27.015Z,9.65
2019-06-26T22:23:55.451Z,11.30
2019-06-26T22:26:23.933Z,11.63
2019-06-26T22:28:52.714Z,10.58
2019-06-26T22:31:21.313Z,11.78
2019-06-26T22:33:49.947Z,10.63
2019-06-26T22:36:18.511Z,10.53
2019-06-26T22:38:47.025Z,10.40
2019-06-26T22:41:17.031Z,10.65
2019-06-26T22:43:45.549Z,10.58
2019-06-26T22:46:15.044Z,10.08
2019-06-26T22:48:43.551Z,10.23
2019-06-26T22:51:12.075Z,9.83
2019-06-26T22:53:40.491Z,9.48
2019-06-26T22:56:09.033Z,9.60
2019-06-26T22:58:39.123Z,10.32
2019-06-26T23:01:07.671Z,8.55
2019-06-26T23:03:36.241Z,8.40
2019-06-26T23:06:04.839Z,8.70
2019-06-26T23:08:33.466Z,8.88
2019-06-26T23:11:01.931Z,9.20
2019-06-26T23:13:30.408Z,8.00
2019-06-26T23:15:59.547Z,9.33
2019-06-26T23:18:34.980Z,8.13
2019-06-26T23:21:04.125Z,8.25
2019-06-26T23:23:32.593Z,8.25
2019-06-26T23:26:01.118Z,8.20
2019-06-26T23:28:29.608Z,7.78
2019-06-26T23:30:58.047Z,7.95
2019-06-26T23:33:26.671Z,8.20
2019-06-26T23:35:55.153Z,7.70
2019-06-26T23:38:23.809Z,7.67
2019-06-26T23:40:52.305Z,8.15
2019-06-26T23:43:20.786Z,7.95
2019-06-26T23:45:49.417Z,7.37
2019-06-26T23:48:18.002Z,7.22
2019-06-26T23:50:46.922Z,7.87
2019-06-26T23:53:15.446Z,8.10
2019-06-26T23:55:44.020Z,7.10
2019-06-26T23:58:12.695Z,7.12
